Información del aeropuerto YPPH

Información de pista
Pista 03 Longitud 11299 ft Anchura 148 ft
Elevación 67 ft Umbral 0 ft Rumbo 14
Pista 21 Longitud 11299 ft Anchura 148 ft
Elevación 43 ft Umbral 0 ft Rumbo 194
Pista 06 Longitud 7096 ft Anchura 148 ft
Elevación 58 ft Umbral 0 ft Rumbo 59
Pista 24 Longitud 7096 ft Anchura 148 ft
Elevación 58 ft Umbral 0 ft Rumbo 239
Frecuencias del aeropuerto
Tipo APP Nombre APP Frecuencia 123.6 MHZ
Tipo ATIS Nombre ATIS Frecuencia 123.8 MHZ
Tipo CLD Nombre CLNC DEL Frecuencia 118.55 MHZ
Tipo DEP Nombre DEP Frecuencia 118.7 MHZ
Tipo FSS Nombre PERTH RADA Frecuencia 135.25 MHZ
Tipo GND Nombre GND Frecuencia 121.7 MHZ
Tipo OPS Nombre RAAF AIR O Frecuencia 897.4 MHZ
Tipo TWR Nombre TWR Frecuencia 120.5 MHZ
Radioayudas del aeropuerto
Tipo NDB Nombre Caversham Frecuencia 329 KHZ
Tipo VOR-DME Nombre Perth Frecuencia 113700 KHZ
Tipo NDB Nombre Perth Frecuencia 272 KHZ
Tipo NDB Nombre Parkerville Frecuencia 352 KHZ
Información meteorológica del aeropuerto y NOTAM
ADDS - METARS form results

(2310 UTC 23 June 2021)
Data provider http://aviationweather.gov/metar/data/
 
METAR text: YPPH 232300Z 00000KT 9999 FEW042 04/03 Q1029
Conditions at: YPPH (PERTH INTL/BELMO, AU) observed 2300 UTC 23 June 2021
Temperature: 4.0°C (39°F)
Dewpoint: 3.0°C (37°F) [RH = 93%]
Pressure (altimeter): 30.38 inches Hg (1029.0 mb)
Winds: calm
Visibility: 6 or more miles (10+ km)
Ceiling: at least 12,000 feet AGL
Clouds: few clouds at 4200 feet AGL
Weather: no significant weather observed at this time

METAR text: YPPH 232230Z 09001KT 9999 BKN042 05/04 Q1028
Conditions at: YPPH (PERTH INTL/BELMO, AU) observed 2230 UTC 23 June 2021
Temperature: 5.0°C (41°F)
Dewpoint: 4.0°C (39°F) [RH = 93%]
Pressure (altimeter): 30.35 inches Hg (1028.0 mb)
Winds: from the E (90 degrees) at 1 MPH (1 knots; 0.5 m/s)
Visibility: 6 or more miles (10+ km)
Ceiling: 4200 feet AGL
Clouds: broken clouds at 4200 feet AGL
Weather: no significant weather observed at this time

Forecast for: YPPH (PERTH INTL/BELMO, AU)
Text: TAF YPPH 232004Z 2321/2500 11005KT CAVOK
Forecast period: 2100 UTC 23 June 2021 to 0300 UTC 24 June 2021
Forecast type: FROM: standard forecast or significant change
Winds: from the ESE (110 degrees) at 6 MPH (5 knots; 2.6 m/s)
Visibility: 6 or more miles (10+ km)
Ceiling: unknown
Clouds: missing
Weather: NSW  (no significant weather)
Text: FM240300 05008KT CAVOK
Forecast period: 0300 UTC 24 June 2021 to 0000 UTC 25 June 2021
Forecast type: FROM: standard forecast or significant change
Winds: from the NE (50 degrees) at 9 MPH (8 knots; 4.1 m/s)
Visibility: 6 or more miles (10+ km)
Ceiling: unknown
Clouds: missing
Weather: NSW  (no significant weather)